Tiempo atmosférico en la estación meteorológica de Cala, Huelva (618 m.)



Fecha
DESCASC
Temp. máxima en grados centígrados (hora)
DESCASC
Temp. mínima en grados centígrados (hora)
DESCASC
Temp. media en grados centígrados
DESCASC
Racha de viento máxima en m/sg (hora)
DESCASC
Velocidad máxima media en intervalos de 10 minutos(hora)
DESCASC
Precipitaciones diarias en mm
DESCASC
Precipitaciones de 00:00 a 06:00 en mm
DESCASC
Precipitaciones de 06:00 a 12:00 en mm
DESCASC
Precipitaciones de 12:00 a 18:00 en mm
DESCASC
Precipitaciones de 18:00 a 24:00 en mm
DESCASC
19-01-2020 11 (15:50) 5.3 (23:10) 8.2 15.56 (23:59) 8.06 (23:59) 0.4 0.4 0 0 0
18-01-2020 12 (16:30) 6.5 (00:00) 9.3 10 (22:20) 4.72 (22:20) 17 0 13 4 0
17-01-2020 14.4 (15:50) 6.4 (23:40) 10.4 6.94 (00:20) 2.78 (00:30) 2.2 2.2 0 0 0
16-01-2020 14 (15:50) 7.2 (00:00) 10.6 8.06 (19:30) 3.06 (19:30) 0.2 0.2 0 0 0
15-01-2020 10.2 (16:00) 4.2 (00:00) 7.2 5.83 (11:40) 1.94 (11:50) 1.8 0 0 0.4 1.4
14-01-2020 10.6 (14:10) 0.3 (00:00) 5.5 4.17 (13:20) 1.67 (13:30) 0 0 0 0 0
13-01-2020 11.8 (15:30) 0.4 (00:00) 6.1 5.56 (13:40) 2.22 (15:00) 0 0 0 0 0
12-01-2020 13.2 (15:30) 0.7 (00:00) 6.9 3.61 (17:10) 1.94 (16:10) 0 0 0 0 0
11-01-2020 12.2 (15:00) 2 (00:00) 7.1 6.11 (02:40) 2.78 (02:20) 0 0 0 0 0
10-01-2020 11.1 (16:00) 2.7 (00:00) 6.9 7.5 (11:30) 3.89 (04:10) 0 0 0 0 0
09-01-2020 13.4 (17:00) 2.4 (00:00) 7.9 5.28 (23:50) 3.06 (23:50) 0 0 0 0 0
08-01-2020 17.4 (16:00) 3.7 (00:00) 10.5 3.33 (13:20) 1.94 (13:30) 0 0 0 0 0
07-01-2020 16.7 (15:30) 2.4 (00:00) 9.6 3.89 (17:00) 1.67 (17:00) 0 0 0 0 0
06-01-2020 14.5 (16:00) 1.8 (00:00) 8.1 2.78 (14:50) 1.67 (23:10) 0 0 0 0 0
05-01-2020 12.9 (15:30) 2.5 (00:00) 7.7 5 (14:40) 3.06 (14:40) 0 0 0 0 0
04-01-2020 11.8 (15:20) 3.2 (00:00) 7.5 7.78 (16:00) 3.33 (16:00) 0 0 0 0 0
03-01-2020 11.2 (15:00) 5.1 (00:00) 8.1 5 (16:30) 2.78 (16:30) 0 0 0 0 0
02-01-2020 13.5 (15:10) 3.2 (00:00) 8.4 4.72 (13:40) 2.22 (12:40) 0 0 0 0 0
01-01-2020 15.4 (15:40) 3.3 (00:00) 9.3 2.22 (16:10) 1.11 (16:40) 0 0 0 0 0
31-12-2019 15.4 (16:00) 2.6 (00:00) 9 3.06 (12:20) 1.39 (12:30) 0 0 0 0 0
30-12-2019 -- (--) -- (--) -- -- (--) -- (--) -- 0 0 0 --
29-12-2019 17.2 (15:30) 5.1 (00:00) 11.2 5 (12:00) 2.5 (12:00) 0 0 0 0 0
28-12-2019 19.5 (15:00) 7.1 (00:00) 13.3 4.17 (12:10) 2.22 (12:10) 0 0 0 0 0
27-12-2019 18.8 (15:00) 8.6 (00:00) 13.7 6.94 (14:40) 3.61 (14:40) 0 0 0 0 0
26-12-2019 19.7 (14:20) 7.1 (00:00) 13.4 5 (18:20) 2.5 (18:20) 0 0 0 0 0
25-12-2019 18.9 (15:00) 7.2 (00:00) 13 5.28 (14:30) 2.78 (14:20) 0 0 0 0 0
24-12-2019 19.6 (14:30) 7.4 (00:00) 13.5 5.83 (13:50) 3.06 (13:50) 0 0 0 0 0
23-12-2019 17.1 (16:00) 5.4 (00:00) 11.3 3.06 (04:00) 1.67 (04:00) 0 0 0 0 0

Gráficas

Temp. máximas Temp. mínimas Temp. medias Precipitaciones Rachas de viento máximas Velocidades máximas media en intervalos de 10 minutos

Datos horarios

Fecha y hora oficial Temperatura (ºC) Velocidad del viento (km/h) Dirección del viento Racha (km/h) Dirección de racha Precipitación (mm) Presión (hPa) Tendencia (hPa) Humedad (%)
2020-01-21 23:00:00 5.9 4 Este 18 Nordeste 0 -- -- 83
2020-01-21 22:00:00 6 9 Este 28 Este 0 -- -- 82
2020-01-21 21:00:00 6 7 Nordeste 26 Nordeste 0 -- -- 80
2020-01-21 20:00:00 6.2 8 Nordeste 28 Nordeste 0 -- -- 80
2020-01-21 19:00:00 6.7 11 Nordeste 28 Nordeste 0 -- -- 73
2020-01-21 18:00:00 7.3 8 Nordeste 28 Nordeste 0 -- -- 72
2020-01-21 17:00:00 7.8 13 Nordeste 31 Este 0 -- -- 68
2020-01-21 16:00:00 7.8 15 Nordeste 28 Nordeste 0 -- -- 66
2020-01-21 15:00:00 7.9 13 Nordeste 39 Nordeste 0 -- -- 67
2020-01-21 14:00:00 8 14 Nordeste 31 Nordeste 0 -- -- 65
2020-01-21 13:00:00 8 11 Nordeste 29 Nordeste 0 -- -- 63
2020-01-21 12:00:00 8.3 13 Norte 28 Nordeste 0 -- -- 62
2020-01-21 11:00:00 7.1 15 Nordeste 29 Nordeste 0 -- -- 65
2020-01-21 10:00:00 5.3 8 Norte 32 Nordeste 0 -- -- 72
2020-01-21 09:00:00 4.5 15 Nordeste 36 Nordeste 0 -- -- 73
2020-01-21 08:00:00 4.7 16 Nordeste 40 Este 0 -- -- 71
2020-01-21 07:00:00 4.3 10 Nordeste 31 Norte 0 -- -- 72
2020-01-21 06:00:00 4.6 4 Sudeste 24 Este 0 -- -- 69
2020-01-21 05:00:00 4.7 8 Este 29 Nordeste 0 -- -- 72
2020-01-21 04:00:00 4.4 4 Este 27 Nordeste 0 -- -- 76
2020-01-21 03:00:00 4.7 9 Nordeste 28 Este 0 -- -- 74
2020-01-21 02:00:00 5 9 Nordeste 35 Este 0 -- -- 74
2020-01-21 01:00:00 5.2 12 Este 38 Nordeste 0 -- -- 74
2020-01-21 00:00:00 5 9 Este 33 Este 0 -- -- 75
2020-01-20 23:00:00 4.9 9 Este 28 Este 0 -- -- 75
2020-01-20 22:00:00 5 12 Este 33 Sudeste 0 -- -- 74
2020-01-20 21:00:00 5.1 13 Este 41 Nordeste 0 -- -- 74
2020-01-20 20:00:00 4.9 14 Nordeste 37 Este 0 -- -- 71
2020-01-20 19:00:00 5.1 10 Este 40 Nordeste 0 -- -- 67
2020-01-20 18:00:00 5.7 13 Nordeste 39 Nordeste 0 -- -- 64
2020-01-20 17:00:00 6.3 19 Nordeste 45 Nordeste 0 -- -- 60
2020-01-20 16:00:00 6 15 Este 54 Nordeste 0 -- -- 61
2020-01-20 15:00:00 5.8 21 Nordeste 48 Nordeste 0 -- -- 61
2020-01-20 14:00:00 5.9 16 Nordeste 51 Nordeste 0 -- -- 59
2020-01-20 13:00:00 6.2 21 Nordeste 49 Nordeste 0 -- -- 57
2020-01-20 12:00:00 6.2 20 Nordeste 51 Nordeste 0 -- -- 53
2020-01-20 11:00:00 5.6 19 Nordeste 49 Este 0 -- -- 50
2020-01-20 10:00:00 4.2 19 Nordeste 49 Nordeste 0 -- -- 54
2020-01-20 09:00:00 3.1 15 Nordeste 38 Nordeste 0 -- -- 51
2020-01-20 08:00:00 3.4 20 Nordeste 45 Nordeste 0 -- -- 51
2020-01-20 07:00:00 3.9 17 Nordeste 43 Nordeste 0 -- -- 49
2020-01-20 06:00:00 4.2 22 Nordeste 46 Nordeste 0 -- -- 50
2020-01-20 05:00:00 3.7 15 Nordeste 37 Nordeste 0 -- -- 53
2020-01-20 04:00:00 4.2 15 Nordeste 37 Nordeste 0 -- -- 51
2020-01-20 03:00:00 4.3 12 Nordeste 46 Nordeste 0 -- -- 50
2020-01-20 02:00:00 4.9 16 Nordeste 46 Nordeste 0 -- -- 48
2020-01-20 01:00:00 5.7 21 Nordeste 51 Nordeste 0 -- -- 45
2020-01-20 00:00:00 6 29 Nordeste 56 Nordeste 0 -- -- 47
2020-01-19 23:00:00 5.4 10 Nordeste 24 Nordeste 0 -- -- 67
2020-01-19 22:00:00 6.8 11 Este 36 Este 0 -- -- 58
2020-01-19 21:00:00 7.8 16 Nordeste 42 Norte 0 -- -- 45
2020-01-19 20:00:00 8.4 13 Norte 41 Nordeste 0 -- -- 47
2020-01-19 19:00:00 8.6 8 Nordeste 36 Nordeste 0 -- -- 54
2020-01-19 18:00:00 9.3 6 Norte 41 Nordeste 0 -- -- 63
2020-01-19 17:00:00 10 21 Nordeste 44 Nordeste 0 -- -- 60
2020-01-19 16:00:00 10.8 14 Norte 43 Norte 0 -- -- 61
2020-01-19 15:00:00 10.5 16 Norte 31 Norte 0 -- -- 68
2020-01-19 14:00:00 9.9 16 Norte 31 Norte 0 -- -- 74
2020-01-19 13:00:00 9.9 12 Norte 30 Noroeste 0 -- -- 76
2020-01-19 12:00:00 9.5 13 Noroeste 30 Noroeste 0 -- -- 76
2020-01-19 11:00:00 8.6 10 Norte 37 Noroeste 0 -- -- 81
2020-01-19 10:00:00 7.5 15 Noroeste 32 Noroeste 0 -- -- 88
2020-01-19 09:00:00 7.3 10 Norte 27 Noroeste 0 -- -- 90
2020-01-19 08:00:00 7.2 8 Noroeste 23 Noroeste 0 -- -- 92
2020-01-19 07:00:00 7.1 10 Noroeste 28 Noroeste 0 -- -- 93
2020-01-19 06:00:00 6.9 12 Oeste 35 Noroeste 0 -- -- 94
2020-01-19 05:00:00 6.7 10 Noroeste 26 Oeste 0 -- -- 92
2020-01-19 04:00:00 6.5 12 Noroeste 35 Oeste 0 -- -- 92
2020-01-19 03:00:00 7.3 16 Noroeste 36 Noroeste 0.4 -- -- 90
2020-01-19 02:00:00 8.2 13 Noroeste 30 Noroeste 0 -- -- 95
2020-01-19 01:00:00 8.3 16 Noroeste 42 Noroeste 0 -- -- 93
2020-01-19 00:00:00 8.6 11 Noroeste 35 Noroeste 0 -- -- 93
2020-01-18 23:00:00 9.6 10 Oeste 36 Noroeste 0 -- -- 96
2020-01-18 22:00:00 10.1 9 Oeste 33 Oeste 0 -- -- 98
2020-01-18 21:00:00 10.4 8 Oeste 19 Oeste 0 -- -- 98
2020-01-18 20:00:00 10.5 8 Oeste 17 Oeste 0 -- -- 98
2020-01-18 19:00:00 10.9 5 Oeste 10 Oeste 0 -- -- 97
2020-01-18 18:00:00 11.8 4 Noroeste 17 Oeste 0 -- -- 96
2020-01-18 17:00:00 12 6 Oeste 13 Oeste 0.6 -- -- 97
2020-01-18 16:00:00 11.6 0 Calma 4 Sudeste 1 -- -- 98
2020-01-18 15:00:00 11 0 Calma 9 Sur 0.8 -- -- 98
2020-01-18 14:00:00 10.6 3 Sur 12 Sudoeste 1 -- -- 98
2020-01-18 13:00:00 10.3 4 Sur 15 Sur 0.6 -- -- 98
2020-01-18 12:00:00 10.2 7 Sur 16 Sudoeste 1.6 -- -- 98
2020-01-18 11:00:00 10.1 5 Sur 19 Sudoeste 6.6 -- -- 98
2020-01-18 10:00:00 9.5 5 Sur 15 Sudoeste 3 -- -- 97
2020-01-18 09:00:00 9.5 2 Sur 9 Oeste 1.6 -- -- 96
2020-01-18 08:00:00 9.2 2 Sur 9 Sudoeste 0.2 -- -- 95
2020-01-18 07:00:00 9 2 Sur 6 Sur 0 -- -- 92
2020-01-18 06:00:00 8.7 0 Calma 7 Sur 0 -- -- 90
2020-01-18 05:00:00 8.6 0 Calma 5 Sur 0 -- -- 90
2020-01-18 04:00:00 8.5 3 Sur 5 Sur 0 -- -- 94
2020-01-18 03:00:00 7.8 0 Calma 4 Oeste 0 -- -- 98
2020-01-18 02:00:00 7.3 0 Calma 2 Oeste 0 -- -- 97
2020-01-18 01:00:00 7 0 Calma 4 Noroeste 0 -- -- 97
2020-01-18 00:00:00 6.5 0 Calma 2 Oeste 0 -- -- 95
2020-01-17 23:00:00 6.9 0 Calma 0 Calma 0 -- -- 92
2020-01-17 22:00:00 7.4 0 Calma 2 Sudoeste 0 -- -- 93
2020-01-17 21:00:00 7.8 0 Calma 4 Sudoeste 0 -- -- 89
2020-01-17 20:00:00 8.6 0 Calma 4 Noroeste 0 -- -- 84
2020-01-17 19:00:00 10.4 3 Noroeste 4 Noroeste 0 -- -- 79
2020-01-17 18:00:00 13 3 Noroeste 9 Norte 0 -- -- 68
2020-01-17 17:00:00 13.6 6 Norte 12 Noroeste 0 -- -- 65
2020-01-17 16:00:00 14.3 4 Noroeste 12 Sudoeste 0 -- -- 60
2020-01-17 15:00:00 14.2 2 Noroeste 14 Noroeste 0 -- -- 64
2020-01-17 14:00:00 13.4 6 Noroeste 10 Noroeste 0 -- -- 69
2020-01-17 13:00:00 13 3 Sudeste 7 Sudeste 0 -- -- 83
2020-01-17 12:00:00 11.9 0 Calma 6 Este 0 -- -- 90
2020-01-17 11:00:00 10.2 0 Calma 3 Este 0 -- -- 99
2020-01-17 10:00:00 8.1 0 Calma 6 Oeste 0 -- -- 99
2020-01-17 09:00:00 7.4 2 Noroeste 4 Noroeste 0 -- -- 98
2020-01-17 08:00:00 8 3 Noroeste 9 Oeste 0 -- -- 95
2020-01-17 07:00:00 8.3 3 Oeste 6 Oeste 0 -- -- 94
2020-01-17 06:00:00 9.6 2 Oeste 4 Oeste 0 -- -- 95
2020-01-17 05:00:00 9.9 0 Calma 6 Sur 0.2 -- -- 96
2020-01-17 04:00:00 9.9 4 Sur 19 Sudoeste 0.6 -- -- 96
2020-01-17 03:00:00 10 6 Sudoeste 23 Oeste 1.2 -- -- 94
2020-01-17 02:00:00 10.4 6 Sur 21 Sudoeste 0.2 -- -- 91
2020-01-17 01:00:00 10.3 8 Sudoeste 25 Sudoeste 0 -- -- 88
2020-01-17 00:00:00 10.2 9 Sudoeste 24 Sudoeste 0 -- -- 89
2020-01-16 23:00:00 10 9 Sudoeste 23 Sudoeste 0 -- -- 87
2020-01-16 22:00:00 9.6 9 Sudoeste 23 Sudoeste 0 -- -- 85
2020-01-16 21:00:00 9.6 11 Sudoeste 23 Sudoeste 0 -- -- 71
2020-01-16 20:00:00 10 6 Sudoeste 29 Sudoeste 0 -- -- 61
2020-01-16 19:00:00 10.6 7 Sudoeste 21 Sudoeste 0 -- -- 57
2020-01-16 18:00:00 11.7 5 Sur 21 Sudoeste 0 -- -- 60
2020-01-16 17:00:00 13.4 9 Sudoeste 25 Sur 0 -- -- 50
2020-01-16 16:00:00 13.9 10 Sur 28 Sudoeste 0 -- -- 48
2020-01-16 15:00:00 13.7 7 Sur 20 Sur 0 -- -- 68
2020-01-16 14:00:00 12.3 8 Sudoeste 17 Sudoeste 0 -- -- 73
2020-01-16 13:00:00 11 4 Sudeste 10 Este 0 -- -- 86
2020-01-16 12:00:00 9.9 3 Este 9 Este 0 -- -- 92
2020-01-16 11:00:00 9.3 4 Sudeste 7 Sudeste 0 -- -- 99
2020-01-16 10:00:00 8.3 2 Sudeste 6 Este 0 -- -- 99
2020-01-16 09:00:00 7.6 0 Calma 3 Sudoeste 0 -- -- 99
2020-01-16 08:00:00 7.6 0 Calma 4 Sudeste 0 -- -- 99
2020-01-16 07:00:00 7.5 0 Calma 4 Sudeste 0 -- -- 97
2020-01-16 06:00:00 8.4 0 Calma 6 Sudeste 0 -- -- 98
2020-01-16 05:00:00 8.4 3 Sur 8 Sudoeste 0.2 -- -- 98
2020-01-16 04:00:00 9 3 Sur 9 Sudoeste 0 -- -- 98
2020-01-16 03:00:00 9.2 3 Sur 8 Sur 0 -- -- 97
2020-01-16 02:00:00 9.5 3 Sur 11 Sur 0 -- -- 98
2020-01-16 01:00:00 9.7 4 Sudoeste 11 Sudoeste 0 -- -- 97
2020-01-16 00:00:00 10.1 3 Sur 14 Sudoeste 0 -- -- 98
2020-01-15 23:00:00 9.9 3 Sur 11 Sudoeste 0.2 -- -- 99
2020-01-15 22:00:00 9.3 0 Calma 4 Nordeste 0 -- -- 98
2020-01-15 21:00:00 9.4 0 Calma 3 Este 0.2 -- -- 97
2020-01-15 20:00:00 9.1 0 Calma 6 Noroeste 0.2 -- -- 97
2020-01-15 19:00:00 9 2 Noroeste 5 Nordeste 0.8 -- -- 96
2020-01-15 18:00:00 9.2 3 Nordeste 6 Nordeste 0.2 -- -- 95
2020-01-15 17:00:00 10 3 Este 9 Sudeste 0.2 -- -- 95
2020-01-15 16:00:00 10.2 4 Sur 12 Sudeste 0 -- -- 94
2020-01-15 15:00:00 9.8 4 Sur 10 Sur 0 -- -- 96
2020-01-15 14:00:00 9.5 3 Sur 12 Sur 0 -- -- 96
2020-01-15 13:00:00 9.6 4 Sur 17 Sur 0 -- -- 94
2020-01-15 12:00:00 9.3 6 Sur 21 Sudoeste 0 -- -- 95
2020-01-15 11:00:00 8.4 5 Sur 15 Sudeste 0 -- -- 97
2020-01-15 10:00:00 8.1 3 Sur 12 Sur 0 -- -- 98
2020-01-15 09:00:00 7.5 6 Sur 15 Sur 0 -- -- 97
2020-01-15 08:00:00 6.1 0 Calma 8 Sudeste 0 -- -- 96
2020-01-15 07:00:00 5.4 3 Sudoeste 11 Sur 0 -- -- 94
2020-01-15 06:00:00 4.7 3 Sudoeste 6 Sudoeste 0 -- -- 97
2020-01-15 05:00:00 4.8 2 Sur 5 Noroeste 0 -- -- 97
2020-01-15 04:00:00 4.6 2 Noroeste 4 Noroeste 0 -- -- 94
2020-01-15 03:00:00 5.1 2 Noroeste 3 Sur 0 -- -- 90
2020-01-15 02:00:00 6.3 0 Calma 3 Noroeste 0 -- -- 88
2020-01-15 01:00:00 7 0 Calma 4 Sudeste 0 -- -- 90
2020-01-15 00:00:00 7.1 0 Calma 7 Sur 0 -- -- 90
2020-01-14 23:00:00 7.6 3 Sur 14 Sur 0 -- -- 85
2020-01-14 22:00:00 8.3 3 Sur 10 Sur 0 -- -- 83
2020-01-14 21:00:00 8 2 Sur 8 Sur 0 -- -- 82
2020-01-14 20:00:00 8.2 2 Sur 6 Sur 0 -- -- 78
2020-01-14 19:00:00 8.6 3 Sur 12 Sudoeste 0 -- -- 75
2020-01-14 18:00:00 9.1 3 Sur 14 Sudoeste 0 -- -- 74
2020-01-14 17:00:00 9.7 4 Sur 11 Sur 0 -- -- 72
2020-01-14 16:00:00 10.2 3 Sur 10 Sudoeste 0 -- -- 68
2020-01-14 15:00:00 10.2 3 Sur 10 Sur 0 -- -- 67
2020-01-14 14:00:00 10.5 5 Sur 15 Sudoeste 0 -- -- 66
2020-01-14 13:00:00 9.8 4 Sudeste 10 Sudeste 0 -- -- 72
2020-01-14 12:00:00 8.8 4 Sur 12 Sudoeste 0 -- -- 77
2020-01-14 11:00:00 6.2 0 Calma 5 Este 0 -- -- 98
2020-01-14 10:00:00 2.6 0 Calma 2 Norte 0 -- -- 100
2020-01-14 09:00:00 0.8 0 Calma 0 Calma 0 -- -- 98
2020-01-14 08:00:00 0.8 0 Calma 0 Calma 0 -- -- 98
2020-01-14 07:00:00 0.6 0 Calma 2 Noroeste 0 -- -- 97
2020-01-14 06:00:00 0.6 0 Calma 2 Noroeste 0 -- -- 97
2020-01-14 05:00:00 0.8 0 Calma 2 Noroeste 0 -- -- 96
2020-01-14 04:00:00 1.1 2 Noroeste 2 Noroeste 0 -- -- 95
2020-01-14 03:00:00 1.7 0 Calma 5 Oeste 0 -- -- 95
2020-01-14 02:00:00 2.1 3 Oeste 6 Oeste 0 -- -- 92
2020-01-14 01:00:00 3 3 Oeste 8 Oeste 0 -- -- 91
2020-01-14 00:00:00 3.8 5 Oeste 10 Oeste 0 -- -- 94
2020-01-13 23:00:00 2.8 0 Calma 3 Sur 0 -- -- 90
2020-01-13 22:00:00 3.9 0 Calma 2 Este 0 -- -- 81
2020-01-13 21:00:00 5.8 2 Sudoeste 9 Sudoeste 0 -- -- 74
2020-01-13 20:00:00 6.8 5 Oeste 11 Oeste 0 -- -- 72
2020-01-13 19:00:00 8.1 3 Sudoeste 10 Sudoeste 0 -- -- 67
2020-01-13 18:00:00 10.2 4 Sudoeste 12 Sudoeste 0 -- -- 59
2020-01-13 17:00:00 11.7 2 Oeste 10 Noroeste 0 -- -- 55
2020-01-13 16:00:00 11.7 5 Oeste 17 Sudoeste 0 -- -- 57
2020-01-13 15:00:00 11.7 8 Oeste 15 Sudoeste 0 -- -- 58
2020-01-13 14:00:00 10.9 5 Sur 20 Oeste 0 -- -- 62
2020-01-13 13:00:00 10.6 5 Sur 14 Sudoeste 0 -- -- 63
2020-01-13 12:00:00 9.8 5 Sur 10 Sur 0 -- -- 65
2020-01-13 11:00:00 6.3 2 Este 4 Este 0 -- -- 85
2020-01-13 10:00:00 2.7 0 Calma 2 Sudoeste 0 -- -- 99
2020-01-13 09:00:00 0.6 0 Calma 0 Calma 0 -- -- 96
2020-01-13 08:00:00 0.7 0 Calma 2 Noroeste 0 -- -- 96
2020-01-13 07:00:00 0.6 0 Calma 2 Oeste 0 -- -- 95
2020-01-13 06:00:00 0.8 0 Calma 3 Noroeste 0 -- -- 94
2020-01-13 05:00:00 1 0 Calma 2 Oeste 0 -- -- 94
2020-01-13 04:00:00 1.3 0 Calma 3 Noroeste 0 -- -- 94
2020-01-13 03:00:00 1.2 0 Calma 4 Noroeste 0 -- -- 93
2020-01-13 02:00:00 1.1 0 Calma 2 Noroeste 0 -- -- 89
2020-01-13 01:00:00 1.5 0 Calma 0 Calma 0 -- -- 87
2020-01-13 00:00:00 2 0 Calma 0 Calma 0 -- -- 86
2020-01-12 23:00:00 2.8 0 Calma 4 Oeste 0 -- -- 82
2020-01-12 22:00:00 3.9 4 Noroeste 5 Noroeste 0 -- -- 79
2020-01-12 21:00:00 4.7 0 Calma 5 Noroeste 0 -- -- 78
2020-01-12 20:00:00 5.8 4 Noroeste 8 Oeste 0 -- -- 71
2020-01-12 19:00:00 7.7 0 Calma 5 Noroeste 0 -- -- 59
2020-01-12 18:00:00 11 2 Noroeste 13 Noroeste 0 -- -- 49
2020-01-12 17:00:00 12.9 5 Norte 12 Noroeste 0 -- -- 46
2020-01-12 16:00:00 13.2 5 Noroeste 10 Oeste 0 -- -- 48
2020-01-12 15:00:00 13 3 Sur 10 Oeste 0 -- -- 51
2020-01-12 14:00:00 11.8 4 Oeste 10 Noroeste 0 -- -- 54
2020-01-12 13:00:00 11.4 4 Oeste 11 Sudoeste 0 -- -- 54
2020-01-12 12:00:00 11.3 3 Sur 8 Sudeste 0 -- -- 56
2020-01-12 11:00:00 7.7 2 Este 4 Este 0 -- -- 73
2020-01-12 10:00:00 3.1 0 Calma 0 Calma 0 -- -- 94
2020-01-12 09:00:00 0.8 0 Calma 0 Calma 0 -- -- 93
2020-01-12 08:00:00 0.9 0 Calma 0 Calma 0 -- -- 92
2020-01-12 07:00:00 1 0 Calma 2 Noroeste 0 -- -- 92
2020-01-12 06:00:00 1.2 0 Calma 2 Oeste 0 -- -- 92
2020-01-12 05:00:00 1.2 0 Calma 0 Calma 0 -- -- 92
2020-01-12 04:00:00 1.3 0 Calma 0 Calma 0 -- -- 91
2020-01-12 03:00:00 1.4 0 Calma 0 Calma 0 -- -- 90
2020-01-12 02:00:00 1.6 0 Calma 0 Calma 0 -- -- 90
2020-01-12 01:00:00 2 0 Calma 2 Noroeste 0 -- -- 89
2020-01-12 00:00:00 2.4 0 Calma 2 Oeste 0 -- -- 87
2020-01-11 23:00:00 3.1 0 Calma 2 Oeste 0 -- -- 85
2020-01-11 22:00:00 3.6 0 Calma 4 Noroeste 0 -- -- 83
2020-01-11 21:00:00 4.3 0 Calma 4 Noroeste 0 -- -- 79
2020-01-11 20:00:00 5.4 0 Calma 5 Noroeste 0 -- -- 76
2020-01-11 19:00:00 7.6 0 Calma 4 Noroeste 0 -- -- 69
2020-01-11 18:00:00 10.8 3 Este 11 Este 0 -- -- 54
2020-01-11 17:00:00 12 4 Nordeste 11 Norte 0 -- -- 50
2020-01-11 16:00:00 12.1 4 Nordeste 10 Nordeste 0 -- -- 49
2020-01-11 15:00:00 12.2 6 Sudeste 17 Este 0 -- -- 48
2020-01-11 14:00:00 11.5 6 Este 17 Sudeste 0 -- -- 52
2020-01-11 13:00:00 10.8 7 Sudeste 18 Sudeste 0 -- -- 53
2020-01-11 12:00:00 10.2 5 Este 21 Este 0 -- -- 55
2020-01-11 11:00:00 8.1 7 Este 16 Este 0 -- -- 62
2020-01-11 10:00:00 4 3 Sur 8 Nordeste 0 -- -- 75
2020-01-11 09:00:00 2.1 2 Noroeste 6 Sudoeste 0 -- -- 82
2020-01-11 08:00:00 2.8 3 Sudoeste 8 Sudoeste 0 -- -- 76
2020-01-11 07:00:00 4 3 Sudoeste 15 Este 0 -- -- 71
2020-01-11 06:00:00 5.4 4 Sudeste 19 Nordeste 0 -- -- 65
2020-01-11 05:00:00 4.6 2 Sudeste 12 Sudeste 0 -- -- 68
2020-01-11 04:00:00 6 4 Nordeste 18 Este 0 -- -- 62
2020-01-11 03:00:00 6.5 5 Nordeste 22 Este 0 -- -- 61
2020-01-11 02:00:00 6.3 5 Nordeste 15 Nordeste 0 -- -- 62
2020-01-11 01:00:00 6 3 Nordeste 15 Nordeste 0 -- -- 64
2020-01-11 00:00:00 6.2 5 Nordeste 17 Nordeste 0 -- -- 65
2020-01-10 23:00:00 5.9 6 Nordeste 14 Nordeste 0 -- -- 72
2020-01-10 22:00:00 5.3 0 Calma 9 Norte 0 -- -- 80
2020-01-10 21:00:00 5.4 0 Calma 5 Noroeste 0 -- -- 80
2020-01-10 20:00:00 6.6 2 Noroeste 10 Nordeste 0 -- -- 79
2020-01-10 19:00:00 8.4 4 Norte 15 Nordeste 0 -- -- 72
2020-01-10 18:00:00 10 10 Nordeste 22 Este 0 -- -- 64
2020-01-10 17:00:00 10.8 8 Nordeste 26 Nordeste 0 -- -- 65
2020-01-10 16:00:00 11.1 10 Nordeste 20 Este 0 -- -- 63
2020-01-10 15:00:00 10.5 10 Este 24 Sudeste 0 -- -- 64
2020-01-10 14:00:00 9.1 9 Este 18 Este 0 -- -- 61
2020-01-10 13:00:00 8.4 10 Norte 22 Nordeste 0 -- -- 66
2020-01-10 12:00:00 7.5 8 Norte 27 Nordeste 0 -- -- 69
2020-01-10 11:00:00 6.8 10 Norte 23 Nordeste 0 -- -- 70
2020-01-10 10:00:00 3.9 3 Nordeste 12 Nordeste 0 -- -- 88
2020-01-10 09:00:00 2.9 4 Nordeste 9 Este 0 -- -- 92
2020-01-10 08:00:00 3.3 0 Calma 6 Norte 0 -- -- 91
2020-01-10 07:00:00 4.3 0 Calma 6 Sudeste 0 -- -- 89
2020-01-10 06:00:00 5.7 0 Calma 8 Este 0 -- -- 88
2020-01-10 05:00:00 6.3 4 Nordeste 23 Noroeste 0 -- -- 90
2020-01-10 04:00:00 6.6 10 Norte 18 Norte 0 -- -- 90
2020-01-10 03:00:00 7.8 5 Noroeste 21 Noroeste 0 -- -- 92
2020-01-10 02:00:00 7.9 4 Oeste 17 Oeste 0 -- -- 95
2020-01-10 01:00:00 8.5 8 Oeste 16 Oeste 0 -- -- 95
2020-01-10 00:00:00 9 5 Oeste 19 Noroeste 0 -- -- 91
2020-01-09 23:00:00 8.7 5 Noroeste 15 Noroeste 0 -- -- 93
2020-01-09 22:00:00 7.8 9 Noroeste 17 Noroeste 0 -- -- 90
2020-01-09 21:00:00 7.3 6 Oeste 13 Oeste 0 -- -- 85
2020-01-09 20:00:00 7.4 0 Calma 6 Oeste 0 -- -- 78
2020-01-09 19:00:00 8.7 3 Noroeste 6 Norte 0 -- -- 70
2020-01-09 18:00:00 11.7 4 Noroeste 9 Norte 0 -- -- 58
2020-01-09 17:00:00 13.4 0 Calma 8 Noroeste 0 -- -- 62
2020-01-09 16:00:00 13.2 2 Este 9 Sudeste 0 -- -- 68
2020-01-09 15:00:00 12.2 3 Noroeste 9 Sudoeste 0 -- -- 74
2020-01-09 14:00:00 10.5 3 Este 9 Este 0 -- -- 82
2020-01-09 13:00:00 9.5 3 Nordeste 10 Este 0 -- -- 84
2020-01-09 12:00:00 9.8 6 Este 10 Este 0 -- -- 81
2020-01-09 11:00:00 8.2 5 Sudeste 9 Este 0 -- -- 87
2020-01-09 10:00:00 5.2 0 Calma 4 Noroeste 0 -- -- 98
2020-01-09 09:00:00 4.1 3 Oeste 9 Sudoeste 0 -- -- 94
2020-01-09 08:00:00 2.7 0 Calma 0 Calma 0 -- -- 94
2020-01-09 07:00:00 2.6 0 Calma 0 Calma 0 -- -- 92
2020-01-09 06:00:00 2.8 0 Calma 2 Noroeste 0 -- -- 90
2020-01-09 05:00:00 2.9 0 Calma 0 Calma 0 -- -- 87
2020-01-09 04:00:00 3.3 0 Calma 2 Norte 0 -- -- 85
2020-01-09 03:00:00 3.7 0 Calma 0 Calma 0 -- -- 83
2020-01-09 02:00:00 4.1 0 Calma 7 Oeste 0 -- -- 82
2020-01-09 01:00:00 4.4 6 Noroeste 9 Noroeste 0 -- -- 83
2020-01-09 00:00:00 5.3 0 Calma 2 Nordeste 0 -- -- 78
2020-01-08 23:00:00 6.6 0 Calma 6 Oeste 0 -- -- 72
2020-01-08 22:00:00 7 0 Calma 3 Noroeste 0 -- -- 69
2020-01-08 21:00:00 7.9 2 Oeste 9 Noroeste 0 -- -- 65
2020-01-08 20:00:00 9.5 4 Noroeste 8 Oeste 0 -- -- 63
2020-01-08 19:00:00 12.2 5 Oeste 9 Noroeste 0 -- -- 56
2020-01-08 18:00:00 15.1 3 Sudoeste 6 Sudoeste 0 -- -- 46
2020-01-08 17:00:00 17.2 3 Oeste 9 Oeste 0 -- -- 38
2020-01-08 16:00:00 17.4 3 Oeste 10 Noroeste 0 -- -- 34
2020-01-08 15:00:00 17.3 5 Oeste 10 Sudoeste 0 -- -- 34
2020-01-08 14:00:00 16.6 5 Sudoeste 12 Sudoeste 0 -- -- 34
2020-01-08 13:00:00 16.4 2 Este 6 Sudeste 0 -- -- 35
2020-01-08 12:00:00 15.3 2 Sudeste 5 Sudeste 0 -- -- 36
2020-01-08 11:00:00 11.7 2 Sudeste 5 Sudeste 0 -- -- 45
2020-01-08 10:00:00 6.6 0 Calma 2 Noroeste 0 -- -- 59
2020-01-08 09:00:00 3.9 0 Calma 2 Oeste 0 -- -- 62
2020-01-08 08:00:00 3.9 0 Calma 2 Oeste 0 -- -- 62
2020-01-08 07:00:00 4.1 0 Calma 3 Oeste 0 -- -- 62
2020-01-08 06:00:00 4.1 0 Calma 3 Oeste 0 -- -- 63
2020-01-08 05:00:00 4.3 0 Calma 2 Oeste 0 -- -- 68
2020-01-08 04:00:00 4.5 0 Calma 2 Oeste 0 -- -- 67
2020-01-08 03:00:00 4.4 0 Calma 7 Noroeste 0 -- -- 70
2020-01-08 02:00:00 4.7 0 Calma 4 Noroeste 0 -- -- 67
2020-01-08 01:00:00 5 0 Calma 4 Sudoeste 0 -- -- 66
2020-01-08 00:00:00 5.5 0 Calma 5 Noroeste 0 -- -- 66
2020-01-07 23:00:00 6.1 3 Noroeste 5 Oeste 0 -- -- 65
2020-01-07 22:00:00 6.1 0 Calma 7 Noroeste 0 -- -- 64
2020-01-07 21:00:00 6.5 4 Noroeste 6 Noroeste 0 -- -- 60
2020-01-07 20:00:00 7.5 0 Calma 4 Noroeste 0 -- -- 58
2020-01-07 19:00:00 9.9 2 Noroeste 5 Noroeste 0 -- -- 56
2020-01-07 18:00:00 13.7 3 Noroeste 11 Norte 0 -- -- 48
2020-01-07 17:00:00 16.1 6 Norte 14 Nordeste 0 -- -- 39
2020-01-07 16:00:00 16.7 2 Sur 10 Sudeste 0 -- -- 40
2020-01-07 15:00:00 16.2 2 Noroeste 11 Oeste 0 -- -- 45
2020-01-07 14:00:00 15.3 5 Oeste 10 Oeste 0 -- -- 49
2020-01-07 13:00:00 14.7 2 Sur 8 Sudeste 0 -- -- 44
2020-01-07 12:00:00 13.8 3 Sudeste 5 Sudeste 0 -- -- 49
2020-01-07 11:00:00 10.5 0 Calma 4 Sudeste 0 -- -- 63
2020-01-07 10:00:00 5.1 2 Noroeste 3 Noroeste 0 -- -- 79
2020-01-07 09:00:00 2.6 0 Calma 2 Noroeste 0 -- -- 82
2020-01-07 08:00:00 2.7 0 Calma 0 Calma 0 -- -- 81
2020-01-07 07:00:00 2.9 0 Calma 2 Sudoeste 0 -- -- 78
2020-01-07 06:00:00 2.7 0 Calma 2 Noroeste 0 -- -- 80
2020-01-07 05:00:00 2.8 0 Calma 2 Noroeste 0 -- -- 82
2020-01-07 04:00:00 3 0 Calma 2 Noroeste 0 -- -- 85
2020-01-07 03:00:00 3.1 0 Calma 2 Sudoeste 0 -- -- 89
2020-01-07 02:00:00 3.4 0 Calma 0 Calma 0 -- -- 92
2020-01-07 01:00:00 3.9 0 Calma 2 Noroeste 0 -- -- 90
2020-01-07 00:00:00 4.7 0 Calma 8 Noroeste 0 -- -- 90
2020-01-06 23:00:00 4.9 5 Noroeste 6 Noroeste 0 -- -- 90
2020-01-06 22:00:00 5.4 5 Noroeste 8 Noroeste 0 -- -- 90
2020-01-06 21:00:00 6.4 2 Noroeste 6 Noroeste 0 -- -- 87
2020-01-06 20:00:00 8 0 Calma 8 Norte 0 -- -- 81
2020-01-06 19:00:00 10.1 4 Noroeste 6 Noroeste 0 -- -- 78
2020-01-06 18:00:00 12.6 3 Sudoeste 6 Sudoeste 0 -- -- 71
2020-01-06 17:00:00 14.2 3 Oeste 6 Noroeste 0 -- -- 65
2020-01-06 16:00:00 14.5 2 Sur 8 Oeste 0 -- -- 65
2020-01-06 15:00:00 14.2 3 Sudeste 10 Este 0 -- -- 59
2020-01-06 14:00:00 13.3 4 Sudeste 8 Sur 0 -- -- 64
2020-01-06 13:00:00 12.2 2 Sudeste 8 Sudeste 0 -- -- 70
2020-01-06 12:00:00 10.9 2 Este 8 Sudeste 0 -- -- 75
2020-01-06 11:00:00 8 0 Calma 0 Calma 0 -- -- 92
2020-01-06 10:00:00 4.4 0 Calma 0 Calma 0 -- -- 100